Time;durP1;ratioP1;P1;durP2;ratioP2;P2;SDS_P1;SDS_P2;PMS_P1;PMS_P2;Temp;Humidity;BMP_temperature;BMP_pressure;BME280_temperature;BME280_humidity;BME280_pressure;Samples;Min_cycle;Max_cycle;Signal;HPM_P1;HPM_P2
2022/06/24 00:00:01;;;;;;;4.68;3.00;;;;;;;24.87;52.35;100628.25;5065077;28;20017;-58
2022/06/24 00:02:26;;;;;;;3.88;2.85;;;;;;;24.86;52.44;100629.28;5065016;28;20084;-58
2022/06/24 00:04:54;;;;;;;7.55;3.75;;;;;;;24.87;52.44;100644.56;5064826;28;20028;-58
2022/06/24 00:07:19;;;;;;;3.90;2.90;;;;;;;24.87;52.54;100650.00;5064288;28;20052;-58
2022/06/24 00:09:44;;;;;;;3.83;2.97;;;;;;;24.86;52.51;100640.16;5064851;28;20025;-58
2022/06/24 00:12:12;;;;;;;4.75;3.38;;;;;;;24.87;52.62;100655.44;5064643;28;20028;-58
2022/06/24 00:14:39;;;;;;;5.75;2.90;;;;;;;24.87;52.66;100651.88;5064323;28;20021;-58
2022/06/24 00:17:07;;;;;;;4.55;3.03;;;;;;;24.88;52.65;100637.22;5064850;28;20021;-58
2022/06/24 00:19:54;;;;;;;4.25;2.92;;;;;;;24.87;52.63;100630.13;5064354;28;20025;-59
2022/06/24 00:22:20;;;;;;;6.15;3.28;;;;;;;24.86;52.49;100632.00;5064025;28;20045;-59
2022/06/24 00:24:45;;;;;;;4.63;2.83;;;;;;;24.87;52.61;100651.88;5071961;28;20051;-58
2022/06/24 00:27:19;;;;;;;4.30;2.97;;;;;;;24.86;52.69;100656.50;5087627;28;20028;-58
2022/06/24 00:29:44;;;;;;;5.15;3.25;;;;;;;24.86;52.54;100651.06;5088431;28;20031;-59
2022/06/24 00:32:10;;;;;;;5.97;3.05;;;;;;;24.63;52.88;100597.16;5088519;28;20044;-58
2022/06/24 00:34:37;;;;;;;4.53;3.17;;;;;;;24.85;52.70;100622.19;5088019;28;20061;-58
2022/06/24 00:37:25;;;;;;;4.18;3.45;;;;;;;24.86;52.53;100610.25;5088084;28;20024;-58
2022/06/24 00:39:52;;;;;;;5.47;3.40;;;;;;;24.86;52.69;100612.16;5088027;28;20039;-59
2022/06/24 00:42:18;;;;;;;4.57;3.00;;;;;;;24.81;52.56;100607.34;5087796;28;20111;-58
2022/06/24 00:44:59;;;;;;;3.78;3.15;;;;;;;24.86;52.67;100623.03;5088191;28;20081;-58
2022/06/24 00:47:27;;;;;;;3.95;3.33;;;;;;;24.84;52.76;100608.78;5088179;28;20020;-57
2022/06/24 00:49:55;;;;;;;8.85;3.95;;;;;;;24.79;52.72;100600.44;5088085;28;20048;-58
2022/06/24 00:52:20;;;;;;;5.10;3.70;;;;;;;24.84;52.69;100596.03;5087649;28;20036;-58
2022/06/24 00:54:45;;;;;;;5.13;3.67;;;;;;;24.81;52.85;100587.50;5086587;28;20037;-59
2022/06/24 00:57:11;;;;;;;4.80;3.72;;;;;;;24.83;52.73;100588.94;5087124;28;20029;-58
2022/06/24 00:59:37;;;;;;;6.00;3.78;;;;;;;24.83;52.75;100586.22;5087723;28;20048;-58
2022/06/24 01:02:06;;;;;;;4.55;3.72;;;;;;;24.84;52.76;100581.59;5082028;28;20024;-59
2022/06/24 01:04:32;;;;;;;4.90;3.85;;;;;;;24.84;52.81;100568.00;5070314;28;20489;-59
2022/06/24 01:06:57;;;;;;;6.43;4.65;;;;;;;24.85;52.82;100561.50;5078441;28;20029;-59
2022/06/24 01:09:23;;;;;;;6.10;3.58;;;;;;;24.85;52.93;100556.06;5087942;28;20103;-58
2022/06/24 01:11:48;;;;;;;6.68;4.50;;;;;;;24.84;52.83;100552.53;5071571;28;20031;-59
2022/06/24 01:14:13;;;;;;;5.50;4.00;;;;;;;24.84;52.95;100538.94;5067551;28;20032;-59
2022/06/24 01:16:39;;;;;;;5.38;4.63;;;;;;;24.82;53.02;100532.88;5067711;28;20021;-58
2022/06/24 01:19:07;;;;;;;4.90;4.38;;;;;;;24.84;53.00;100536.19;5072389;28;20036;-58
2022/06/24 01:21:33;;;;;;;4.73;4.20;;;;;;;24.83;53.13;100542.69;5086046;28;20028;-58
2022/06/24 01:24:18;;;;;;;6.80;4.22;;;;;;;24.84;53.10;100549.81;5087137;28;20481;-58
2022/06/24 01:26:45;;;;;;;4.55;4.15;;;;;;;24.83;53.18;100545.41;5086470;28;20052;-59
2022/06/24 01:29:11;;;;;;;5.38;4.40;;;;;;;24.83;53.14;100542.69;5086261;28;20020;-60
2022/06/24 01:31:38;;;;;;;4.25;3.72;;;;;;;24.79;53.31;100538.75;5087308;28;20051;-59
2022/06/24 01:34:05;;;;;;;7.68;4.50;;;;;;;24.83;53.18;100537.25;5087218;28;20477;-59
2022/06/24 01:36:30;;;;;;;5.03;4.10;;;;;;;24.83;53.19;100534.53;5078307;28;20025;-59
2022/06/24 01:38:55;;;;;;;5.07;4.18;;;;;;;24.83;53.30;100531.81;5067039;28;20044;-59
2022/06/24 01:41:20;;;;;;;5.50;4.90;;;;;;;24.82;53.15;100532.88;5067246;28;20035;-60
2022/06/24 01:43:46;;;;;;;8.82;4.63;;;;;;;24.82;53.19;100535.59;5066948;28;20021;-59
2022/06/24 01:46:12;;;;;;;6.88;4.47;;;;;;;24.81;53.30;100536.66;5067135;28;20017;-60
2022/06/24 01:48:38;;;;;;;5.93;4.43;;;;;;;24.83;53.45;100547.31;5066959;28;20473;-59
2022/06/24 01:51:04;;;;;;;6.47;4.78;;;;;;;24.83;53.39;100552.75;5067251;28;20028;-60
2022/06/24 01:53:29;;;;;;;7.97;4.50;;;;;;;24.83;53.36;100555.47;5065174;28;20116;-59
2022/06/24 01:55:55;;;;;;;5.72;4.40;;;;;;;24.83;53.32;100566.34;5049108;28;20080;-59
2022/06/24 01:58:20;;;;;;;6.15;5.00;;;;;;;24.83;53.44;100572.63;5066842;28;20044;-59
2022/06/24 02:00:45;;;;;;;5.78;4.68;;;;;;;24.82;53.42;100573.66;5066580;28;20035;-59
2022/06/24 02:03:10;;;;;;;6.25;4.40;;;;;;;24.83;53.54;100578.06;5065387;28;20021;-59
2022/06/24 02:05:36;;;;;;;5.65;4.85;;;;;;;24.75;53.62;100569.31;5066381;28;20028;-60
2022/06/24 02:08:01;;;;;;;6.18;4.80;;;;;;;24.75;53.73;100597.31;5066272;28;20037;-59
2022/06/24 02:13:26;;;;;;;6.63;4.57;;;;;;;24.73;53.80;100607.59;5085270;28;20046;-59
2022/06/24 02:15:55;;;;;;;6.93;5.57;;;;;;;24.83;53.67;100615.28;5085487;28;20059;-59
2022/06/24 02:18:22;;;;;;;8.30;5.70;;;;;;;24.83;53.88;100621.56;5086250;28;20043;-58
2022/06/24 02:20:48;;;;;;;8.20;5.55;;;;;;;24.84;54.03;100625.09;5085194;28;20044;-60
2022/06/24 02:23:13;;;;;;;8.32;4.85;;;;;;;24.79;54.09;100619.50;5086119;28;20439;-60
2022/06/24 02:25:38;;;;;;;8.18;5.18;;;;;;;24.84;54.35;100611.50;5085996;28;20036;-60
2022/06/24 02:28:03;;;;;;;5.57;4.75;;;;;;;24.83;54.42;100607.13;5086414;28;20032;-59
2022/06/24 02:30:29;;;;;;;6.60;5.30;;;;;;;24.82;54.25;100614.47;5086236;28;20024;-60
2022/06/24 02:32:54;;;;;;;7.13;5.18;;;;;;;24.83;54.27;100610.69;5086119;28;20056;-59
2022/06/24 02:35:20;;;;;;;5.78;4.47;;;;;;;24.82;54.30;100597.31;5086201;28;20054;-59
2022/06/24 02:37:46;;;;;;;7.75;4.97;;;;;;;24.82;54.18;100587.25;5085800;28;20082;-59
2022/06/24 02:42:56;;;;;;;6.63;5.32;;;;;;;24.81;54.30;100573.91;5085898;28;20107;-59
2022/06/24 02:45:21;;;;;;;8.05;5.13;;;;;;;24.80;54.79;100561.31;5086036;28;20020;-59
2022/06/24 02:47:47;;;;;;;7.38;5.00;;;;;;;24.79;54.81;100554.22;5085915;28;20107;-59
2022/06/24 02:50:12;;;;;;;7.28;4.72;;;;;;;24.81;54.83;100577.44;5085405;28;20052;-59
2022/06/24 02:52:37;;;;;;;8.40;4.95;;;;;;;24.80;54.88;100578.47;5085254;28;20060;-60
2022/06/24 02:55:03;;;;;;;8.90;5.18;;;;;;;24.79;55.03;100570.53;5085455;28;20024;-59
2022/06/24 02:57:28;;;;;;;5.75;4.57;;;;;;;24.79;55.15;100568.66;5085838;28;20070;-59
2022/06/24 02:59:53;;;;;;;6.13;4.43;;;;;;;24.78;54.98;100569.72;5085387;28;20020;-59
2022/06/24 03:02:19;;;;;;;8.50;4.65;;;;;;;24.79;55.05;100570.53;5085514;28;20060;-59
2022/06/24 03:04:44;;;;;;;6.00;4.30;;;;;;;24.78;55.03;100560.72;5085288;28;20032;-60
2022/06/24 03:07:09;;;;;;;6.35;4.90;;;;;;;24.78;55.10;100568.88;5085403;28;20028;-59
2022/06/24 03:09:34;;;;;;;7.25;5.40;;;;;;;24.78;55.06;100569.72;5085616;28;20027;-60
2022/06/24 03:11:59;;;;;;;7.28;4.22;;;;;;;24.79;54.89;100573.25;5065701;28;20021;-59
2022/06/24 03:14:25;;;;;;;7.75;3.95;;;;;;;24.78;54.97;100577.03;5065210;28;20101;-59
2022/06/24 03:16:50;;;;;;;6.32;4.75;;;;;;;24.78;55.09;100577.88;5065535;28;20025;-60
2022/06/24 03:19:15;;;;;;;4.90;4.22;;;;;;;24.77;55.19;100578.94;5065262;28;20021;-60
2022/06/24 03:21:40;;;;;;;4.65;4.25;;;;;;;24.77;55.32;100583.53;5065339;28;20116;-58
2022/06/24 03:24:06;;;;;;;5.28;4.45;;;;;;;24.76;55.24;100581.84;5065009;28;20033;-58
2022/06/24 03:26:31;;;;;;;4.55;3.78;;;;;;;24.76;55.30;100579.13;5065580;28;20025;-59
2022/06/24 03:28:57;;;;;;;7.20;4.40;;;;;;;24.73;55.20;100568.69;5065291;28;20035;-58
2022/06/24 03:31:22;;;;;;;4.43;4.03;;;;;;;24.75;55.21;100572.03;5065174;28;20029;-58
2022/06/24 03:33:48;;;;;;;4.60;4.13;;;;;;;24.75;55.12;100577.47;5064928;28;20033;-58
2022/06/24 03:36:13;;;;;;;5.85;3.92;;;;;;;24.74;55.00;100563.03;5065213;28;20105;-58
2022/06/24 03:38:38;;;;;;;6.47;3.67;;;;;;;24.75;55.24;100540.22;5064658;28;20031;-58
2022/06/24 03:41:03;;;;;;;5.13;4.43;;;;;;;24.73;55.11;100528.75;5065027;28;20052;-59
2022/06/24 03:43:29;;;;;;;4.97;4.20;;;;;;;24.75;55.24;100542.13;5064765;28;20041;-57
2022/06/24 03:46:03;;;;;;;5.15;4.32;;;;;;;24.75;55.29;100556.53;5065100;28;20021;-58
2022/06/24 03:48:29;;;;;;;5.13;3.40;;;;;;;24.73;55.29;100555.94;5064954;28;20029;-58
2022/06/24 03:50:55;;;;;;;5.43;4.22;;;;;;;24.74;55.25;100556.78;5064992;28;20017;-58
2022/06/24 03:53:20;;;;;;;4.47;3.50;;;;;;;24.73;55.20;100558.66;5064633;28;20024;-58
2022/06/24 03:55:49;;;;;;;6.72;3.78;;;;;;;24.73;55.31;100566.81;5064835;28;20406;-58
2022/06/24 03:58:16;;;;;;;5.47;3.90;;;;;;;24.73;55.14;100564.09;5065187;28;20025;-59
2022/06/24 04:00:41;;;;;;;4.00;3.35;;;;;;;24.71;55.17;100549.88;5064378;28;20032;-57
2022/06/24 04:03:07;;;;;;;5.45;4.28;;;;;;;24.62;55.07;100538.41;5068858;28;20029;-58
2022/06/24 04:05:32;;;;;;;4.63;3.38;;;;;;;24.71;54.92;100551.75;5068678;28;20049;-58
2022/06/24 04:07:57;;;;;;;5.00;3.25;;;;;;;24.70;54.88;100553.66;5068547;28;20032;-58
2022/06/24 04:10:22;;;;;;;5.30;3.17;;;;;;;24.71;54.93;100551.75;5075002;28;20013;-58
2022/06/24 04:12:48;;;;;;;4.85;3.25;;;;;;;24.69;54.68;100550.09;5088607;28;20027;-58
2022/06/24 04:15:13;;;;;;;3.80;2.88;;;;;;;24.69;54.72;100541.09;5088747;28;20461;-58
2022/06/24 04:17:38;;;;;;;5.53;3.67;;;;;;;24.68;54.50;100532.13;5088871;28;20048;-59
2022/06/24 04:20:05;;;;;;;3.83;2.80;;;;;;;24.68;54.55;100529.41;5088675;28;20354;-58
2022/06/24 04:22:30;;;;;;;3.40;2.95;;;;;;;24.68;54.38;100529.41;5088281;28;20031;-59
2022/06/24 04:24:56;;;;;;;2.78;2.40;;;;;;;24.68;54.39;100539.44;5088301;28;20028;-59
2022/06/24 04:27:21;;;;;;;3.13;2.55;;;;;;;24.68;54.28;100536.72;5088828;28;20071;-58
2022/06/24 04:29:46;;;;;;;3.97;2.70;;;;;;;24.67;54.19;100537.75;5088409;28;20056;-59
2022/06/24 04:32:11;;;;;;;4.00;2.40;;;;;;;24.66;54.32;100534.19;5088492;28;20024;-59
2022/06/24 04:34:38;;;;;;;4.05;2.58;;;;;;;24.66;54.14;100527.94;5087969;28;20021;-58
2022/06/24 04:37:04;;;;;;;3.92;2.20;;;;;;;24.66;54.09;100527.94;5087707;28;20465;-58
2022/06/24 04:39:29;;;;;;;2.30;2.00;;;;;;;24.65;54.05;100523.56;5087851;28;20124;-59
2022/06/24 04:41:54;;;;;;;4.10;2.13;;;;;;;24.64;54.16;100530.06;5087817;28;20461;-59
2022/06/24 04:44:19;;;;;;;4.05;2.28;;;;;;;24.64;54.09;100535.50;5087924;28;20032;-58
2022/06/24 04:46:45;;;;;;;2.05;1.85;;;;;;;24.64;53.97;100543.66;5088401;28;20028;-58
2022/06/24 04:49:10;;;;;;;2.25;1.80;;;;;;;24.63;53.67;100545.50;5088144;28;20381;-59
2022/06/24 04:51:35;;;;;;;2.80;1.95;;;;;;;24.61;53.74;100547.63;5087925;28;20035;-59
2022/06/24 04:54:00;;;;;;;3.85;2.35;;;;;;;24.63;53.61;100533.78;5088347;28;20062;-60
2022/06/24 04:56:26;;;;;;;6.10;2.40;;;;;;;24.63;53.80;100548.22;5088201;28;20036;-59
2022/06/24 04:58:51;;;;;;;2.92;1.90;;;;;;;24.63;53.73;100563.69;5087990;28;20029;-59
2022/06/24 05:01:16;;;;;;;2.13;1.35;;;;;;;24.61;53.60;100557.66;5087986;28;20029;-58
2022/06/24 05:03:43;;;;;;;2.00;1.75;;;;;;;24.60;53.43;100564.97;5087277;28;20059;-59
2022/06/24 05:06:08;;;;;;;4.25;2.22;;;;;;;24.59;53.53;100567.91;5084609;28;20082;-57
2022/06/24 05:08:33;;;;;;;2.15;1.50;;;;;;;24.59;53.51;100574.16;5047464;28;20033;-59
2022/06/24 05:10:59;;;;;;;5.57;2.80;;;;;;;24.59;53.52;100576.88;5069515;28;20012;-58
2022/06/24 05:13:24;;;;;;;2.03;1.48;;;;;;;24.59;53.34;100581.47;5086697;28;20088;-58
2022/06/24 05:15:50;;;;;;;2.15;1.50;;;;;;;24.59;53.46;100597.78;5087609;28;20028;-59
2022/06/24 05:18:15;;;;;;;3.88;1.52;;;;;;;24.58;53.36;100593.41;5087396;28;20110;-59
2022/06/24 05:20:40;;;;;;;2.10;1.40;;;;;;;24.57;53.26;100595.31;5086277;28;20028;-59
2022/06/24 05:23:05;;;;;;;2.47;1.65;;;;;;;24.57;53.46;100587.16;5086986;28;20052;-58
2022/06/24 05:25:31;;;;;;;2.00;1.52;;;;;;;24.54;53.28;100570.44;5087088;28;20028;-59
2022/06/24 05:27:56;;;;;;;2.03;1.30;;;;;;;24.56;53.20;100577.34;5087386;28;20028;-58
2022/06/24 05:30:22;;;;;;;2.63;1.50;;;;;;;24.56;53.26;100582.75;5087281;28;20021;-59
2022/06/24 05:32:47;;;;;;;1.83;1.48;;;;;;;24.55;52.96;100572.94;5087372;28;20024;-59
2022/06/24 05:35:12;;;;;;;1.65;1.35;;;;;;;24.55;53.15;100567.50;5085822;28;20044;-59
2022/06/24 05:37:39;;;;;;;2.50;1.17;;;;;;;24.56;53.14;100571.91;5086940;28;20048;-59
2022/06/24 05:40:05;;;;;;;1.90;1.30;;;;;;;24.50;53.24;100551.00;5087004;28;20052;-59
2022/06/24 05:42:31;;;;;;;2.30;1.23;;;;;;;24.56;53.05;100554.75;5085854;28;20021;-59
2022/06/24 05:44:56;;;;;;;1.45;0.80;;;;;;;24.56;52.90;100546.59;5087001;28;20025;-59
2022/06/24 05:47:21;;;;;;;1.90;1.00;;;;;;;24.55;52.96;100547.63;5087317;28;20028;-60
2022/06/24 05:49:46;;;;;;;1.67;1.00;;;;;;;24.55;52.94;100547.63;5086838;28;20379;-59
2022/06/24 05:52:12;;;;;;;1.20;1.00;;;;;;;24.55;52.82;100542.19;5086374;28;20021;-59
2022/06/24 05:57:20;;;;;;;1.40;0.93;;;;;;;24.55;52.74;100567.50;5086802;28;20163;-59
2022/06/24 05:59:46;;;;;;;3.03;1.20;;;;;;;24.53;52.87;100564.16;5086637;28;20016;-60
2022/06/24 06:02:11;;;;;;;1.70;1.00;;;;;;;24.49;52.86;100548.50;5086894;28;20060;-59
2022/06/24 06:04:37;;;;;;;2.13;1.20;;;;;;;24.51;53.12;100532.78;5086314;28;20029;-59
2022/06/24 06:07:02;;;;;;;3.33;1.05;;;;;;;24.54;53.00;100560.38;5085887;28;20024;-59
2022/06/24 06:09:28;;;;;;;1.90;1.00;;;;;;;24.54;52.99;100573.97;5086556;28;20023;-59
2022/06/24 06:11:53;;;;;;;1.27;0.90;;;;;;;24.54;52.95;100571.25;5067343;28;20462;-59
2022/06/24 06:14:18;;;;;;;2.35;1.02;;;;;;;24.54;53.07;100584.00;5066081;28;20033;-59
2022/06/24 06:16:46;;;;;;;1.95;0.98;;;;;;;24.48;52.77;100571.28;5066299;28;20029;-60
2022/06/24 06:19:12;;;;;;;1.13;1.02;;;;;;;24.54;53.15;100582.13;5066239;28;20033;-59
2022/06/24 06:21:37;;;;;;;1.30;1.05;;;;;;;24.54;52.97;100573.97;5065947;28;20033;-57
2022/06/24 06:24:03;;;;;;;2.53;0.80;;;;;;;24.54;53.01;100554.13;5065059;28;20555;-59
2022/06/24 06:26:29;;;;;;;1.15;0.93;;;;;;;24.54;52.89;100559.56;5066018;28;20055;-59
2022/06/24 06:28:54;;;;;;;1.27;0.80;;;;;;;24.54;53.13;100565.81;5065936;28;20548;-59
2022/06/24 06:31:19;;;;;;;2.45;1.20;;;;;;;24.55;53.35;100575.66;5066275;28;20033;-59
2022/06/24 06:33:45;;;;;;;1.55;0.93;;;;;;;24.54;53.12;100582.13;5065587;28;20043;-60
2022/06/24 06:36:11;;;;;;;2.15;0.85;;;;;;;24.52;53.36;100578.81;5066000;28;20049;-59
2022/06/24 06:38:37;;;;;;;2.47;0.90;;;;;;;24.55;53.12;100580.25;5065519;28;20033;-60
2022/06/24 06:41:03;;;;;;;0.90;0.70;;;;;;;24.54;53.17;100584.84;5065775;28;20095;-59
2022/06/24 06:43:28;;;;;;;2.15;1.00;;;;;;;24.53;53.32;100576.91;5065730;28;20016;-60
2022/06/24 06:45:54;;;;;;;1.15;0.75;;;;;;;24.56;53.24;100580.06;5065609;28;20036;-59
2022/06/24 06:48:20;;;;;;;1.75;0.93;;;;;;;24.57;53.39;100583.59;5065743;28;20088;-59
2022/06/24 06:50:46;;;;;;;1.65;0.70;;;;;;;24.56;53.29;100585.47;5065629;28;20025;-59
2022/06/24 06:53:11;;;;;;;1.60;1.25;;;;;;;24.57;53.26;100584.44;5065031;28;20021;-59
2022/06/24 06:55:36;;;;;;;1.40;1.02;;;;;;;24.57;53.09;100586.31;5065340;28;20039;-60
2022/06/24 06:58:02;;;;;;;1.05;0.82;;;;;;;24.54;53.42;100597.59;5065718;28;20025;-60
2022/06/24 07:00:27;;;;;;;2.58;0.90;;;;;;;24.57;53.22;100598.03;5064644;28;20049;-59
2022/06/24 07:02:53;;;;;;;0.93;0.70;;;;;;;24.56;53.36;100607.22;5065463;28;20120;-59
2022/06/24 07:05:18;;;;;;;1.63;0.85;;;;;;;24.57;53.32;100618.94;5065297;28;20059;-60
2022/06/24 07:07:44;;;;;;;1.00;0.68;;;;;;;24.57;52.97;100621.66;5065100;28;20028;-60
2022/06/24 07:10:09;;;;;;;1.98;1.00;;;;;;;24.51;53.49;100617.91;5069722;28;20470;-60
2022/06/24 07:12:34;;;;;;;1.52;1.00;;;;;;;24.55;53.30;100615.56;5085062;28;20032;-60
2022/06/24 07:14:59;;;;;;;3.40;1.85;;;;;;;24.54;53.38;100624.78;5085101;28;20111;-60
2022/06/24 07:17:25;;;;;;;1.25;0.93;;;;;;;24.54;53.53;100624.78;5085556;28;20025;-60
2022/06/24 07:19:50;;;;;;;1.77;1.08;;;;;;;24.52;53.54;100622.28;5084976;28;20052;-60
2022/06/24 07:22:15;;;;;;;1.77;0.98;;;;;;;24.52;53.43;100621.47;5084980;28;20028;-60
2022/06/24 07:24:41;;;;;;;1.70;1.10;;;;;;;24.53;53.54;100625.84;5083745;28;20118;-59
2022/06/24 07:27:08;;;;;;;2.10;1.05;;;;;;;24.51;53.66;100620.63;5085361;28;20033;-59
2022/06/24 07:29:34;;;;;;;1.50;0.90;;;;;;;24.51;53.58;100620.63;5084889;28;20546;-60
2022/06/24 07:32:04;;;;;;;1.40;0.90;;;;;;;24.50;53.52;100610.78;5085430;28;20111;-60
2022/06/24 07:34:32;;;;;;;3.40;1.30;;;;;;;24.52;53.63;100607.88;5084387;28;20037;-59
2022/06/24 07:36:58;;;;;;;1.73;0.98;;;;;;;24.50;53.91;100608.06;5084807;28;20165;-59
2022/06/24 07:39:24;;;;;;;1.25;0.80;;;;;;;24.48;53.77;100610.19;5084657;28;20052;-59
2022/06/24 07:41:49;;;;;;;1.42;0.80;;;;;;;24.51;53.67;100614.34;5083548;28;20036;-59
2022/06/24 07:44:14;;;;;;;2.42;0.80;;;;;;;24.48;53.74;100612.06;5084943;28;20024;-59
2022/06/24 07:46:40;;;;;;;2.40;1.40;;;;;;;24.50;53.76;100612.66;5085119;28;20025;-59
2022/06/24 07:49:05;;;;;;;2.15;1.20;;;;;;;24.48;53.74;100610.19;5084814;28;20067;-60
2022/06/24 07:51:30;;;;;;;1.33;0.90;;;;;;;24.41;53.85;100607.47;5085046;28;20016;-60
2022/06/24 07:53:56;;;;;;;2.50;0.98;;;;;;;24.49;53.61;100611.84;5084271;28;20112;-60
2022/06/24 07:59:05;;;;;;;1.92;0.98;;;;;;;24.47;53.47;100615.81;5084953;28;20040;-59
2022/06/24 08:01:31;;;;;;;2.55;0.98;;;;;;;24.50;53.55;100615.38;5085441;28;20016;-59
2022/06/24 08:03:56;;;;;;;2.30;1.10;;;;;;;24.48;53.63;100618.31;5084590;28;20033;-59
2022/06/24 08:06:22;;;;;;;2.10;1.23;;;;;;;24.44;53.49;100608.94;5084649;28;20092;-59
2022/06/24 08:08:47;;;;;;;1.38;0.90;;;;;;;24.50;53.63;100615.38;5084355;28;20048;-59
2022/06/24 08:11:13;;;;;;;1.55;1.00;;;;;;;24.50;53.63;100615.38;5071670;28;20394;-60
2022/06/24 08:13:38;;;;;;;1.67;1.13;;;;;;;24.46;53.61;100604.09;5064889;28;20025;-60
2022/06/24 08:16:03;;;;;;;1.63;1.10;;;;;;;24.50;53.58;100599.06;5064636;28;20032;-59
2022/06/24 08:18:29;;;;;;;1.23;0.75;;;;;;;24.49;53.67;100592.81;5064755;28;20025;-59
2022/06/24 08:20:54;;;;;;;1.52;1.00;;;;;;;24.51;53.57;100587.16;5064560;28;20056;-59
2022/06/24 08:23:19;;;;;;;1.73;0.95;;;;;;;24.45;53.65;100588.84;5064144;28;20107;-59
2022/06/24 08:25:45;;;;;;;0.95;0.85;;;;;;;24.50;53.66;100589.03;5064293;28;20029;-59
2022/06/24 08:28:10;;;;;;;1.52;0.95;;;;;;;24.51;53.66;100592.59;5064855;28;20048;-60
2022/06/24 08:30:35;;;;;;;2.40;1.10;;;;;;;24.52;53.60;100602.44;5064362;28;20024;-59
2022/06/24 08:33:02;;;;;;;1.20;0.90;;;;;;;24.52;53.81;100602.44;5064527;28;20025;-59
2022/06/24 08:35:28;;;;;;;2.00;1.10;;;;;;;24.51;53.64;100593.44;5062736;28;20025;-59
2022/06/24 08:37:53;;;;;;;2.08;1.20;;;;;;;24.52;53.69;100605.97;5062991;28;20044;-59
2022/06/24 08:40:20;;;;;;;2.53;0.85;;;;;;;24.53;53.62;100604.09;5063951;28;20048;-59
2022/06/24 08:42:45;;;;;;;1.38;0.88;;;;;;;24.54;53.66;100609.31;5064203;28;20036;-59
2022/06/24 08:45:12;;;;;;;1.42;1.25;;;;;;;24.54;53.61;100605.75;5063128;28;20021;-59
2022/06/24 08:47:38;;;;;;;1.60;1.10;;;;;;;24.55;53.71;100608.28;5066585;28;20024;-59
2022/06/24 08:50:04;;;;;;;1.85;1.60;;;;;;;24.55;53.68;100597.41;5066771;28;20082;-59
2022/06/24 08:52:29;;;;;;;1.55;0.93;;;;;;;24.55;53.70;100596.56;5066432;28;20032;-59
2022/06/24 08:54:55;;;;;;;1.67;1.02;;;;;;;24.57;53.91;100594.47;5067516;28;20029;-59
2022/06/24 08:57:20;;;;;;;1.30;0.93;;;;;;;24.59;53.86;100592.34;5068019;28;20032;-59
2022/06/24 08:59:46;;;;;;;2.72;1.25;;;;;;;24.59;53.87;100590.47;5066546;28;20056;-60
2022/06/24 09:02:15;;;;;;;1.27;0.90;;;;;;;24.60;53.63;100608.47;5068220;28;20025;-59
2022/06/24 09:04:43;;;;;;;;;;;;;;;24.58;53.65;100618.72;5068110;28;20025;-59
2022/06/24 09:07:17;;;;;;;1.45;1.13;;;;;;;24.61;53.58;100618.28;5067242;28;19915;-59
2022/06/24 09:09:56;;;;;;;2.13;1.17;;;;;;;24.61;53.48;100617.47;5068345;28;20017;-60
2022/06/24 09:12:21;;;;;;;;;;;;;;;24.60;53.62;100613.09;5087767;28;20025;-59
2022/06/24 09:14:48;;;;;;;1.95;1.30;;;;;;;24.60;53.59;100618.50;5087335;28;19929;-59
2022/06/24 09:17:13;;;;;;;3.05;1.20;;;;;;;24.56;53.65;100606.41;5087670;28;20020;-59
2022/06/24 09:19:38;;;;;;;2.65;1.17;;;;;;;24.56;53.46;100606.41;5087281;28;20047;-59
2022/06/24 09:22:05;;;;;;;1.55;1.17;;;;;;;24.58;53.71;100615.16;5087144;28;20020;-59
2022/06/24 09:24:47;;;;;;;1.65;1.20;;;;;;;24.60;53.63;100615.78;5087501;28;20020;-59
2022/06/24 09:27:13;;;;;;;2.35;1.10;;;;;;;24.60;53.61;100624.78;5087470;28;20047;-59
2022/06/24 09:29:48;;;;;;;1.55;1.27;;;;;;;24.59;53.63;100617.66;5085955;28;20028;-59
2022/06/24 09:32:14;;;;;;;2.92;1.58;;;;;;;24.49;53.71;100600.97;5087451;28;20027;-59
2022/06/24 09:35:02;;;;;;;2.58;1.45;;;;;;;24.54;53.47;100605.75;5085676;28;20013;-58
2022/06/24 09:37:42;;;;;;;2.50;1.10;;;;;;;24.58;53.50;100610.56;5086945;28;20023;-59
2022/06/24 09:40:14;;;;;;;2.17;1.60;;;;;;;24.58;53.62;100615.16;5087063;28;20052;-59
2022/06/24 09:42:39;;;;;;;2.10;1.40;;;;;;;24.57;53.54;100614.31;5086597;28;20025;-58
2022/06/24 09:45:05;;;;;;;1.85;1.38;;;;;;;24.56;53.67;100620.81;5086907;28;20030;-59
2022/06/24 09:47:30;;;;;;;1.85;1.27;;;;;;;24.57;53.64;100622.47;5085616;28;20052;-59
2022/06/24 09:49:56;;;;;;;1.75;1.10;;;;;;;24.57;53.57;100622.47;5086943;28;20032;-59
2022/06/24 09:52:22;;;;;;;1.67;1.13;;;;;;;24.57;53.47;100627.91;5086588;28;20078;-58
2022/06/24 09:54:48;;;;;;;2.17;1.52;;;;;;;24.58;53.57;100628.75;5086765;28;20039;-59
2022/06/24 09:57:14;;;;;;;2.67;1.30;;;;;;;24.55;53.50;100623.72;5087104;28;20021;-59
2022/06/24 10:02:24;;;;;;;2.17;1.30;;;;;;;24.51;53.26;100617.91;5085514;28;20077;-59
2022/06/24 10:04:51;;;;;;;2.15;1.10;;;;;;;24.58;53.46;100626.03;5085133;28;20032;-58
2022/06/24 10:07:18;;;;;;;1.88;1.30;;;;;;;24.49;53.35;100611.00;5085927;28;20051;-58
2022/06/24 10:09:44;;;;;;;1.65;1.15;;;;;;;24.62;53.19;100635.44;5086026;28;20028;-59
2022/06/24 10:12:10;;;;;;;2.35;1.48;;;;;;;24.63;53.07;100637.09;5064853;28;20524;-59
2022/06/24 10:14:35;;;;;;;3.88;1.58;;;;;;;24.63;53.29;100635.22;5066600;28;20029;-58
2022/06/24 10:17:01;;;;;;;2.42;1.25;;;;;;;24.63;53.12;100631.66;5065243;28;20028;-58
2022/06/24 10:19:27;;;;;;;2.13;1.40;;;;;;;24.60;53.12;100630.22;5065063;28;20032;-59
2022/06/24 10:21:53;;;;;;;2.50;1.60;;;;;;;24.63;52.99;100629.78;5064922;28;20441;-58
2022/06/24 10:24:18;;;;;;;2.03;1.38;;;;;;;24.66;52.85;100631.25;5065938;28;20466;-59
2022/06/24 10:26:48;;;;;;;2.20;1.55;;;;;;;24.66;52.85;100640.22;5066338;28;20032;-59
2022/06/24 10:29:13;;;;;;;1.65;1.48;;;;;;;24.66;52.94;100640.22;5066215;28;20084;-59
2022/06/24 10:31:41;;;;;;;2.65;1.30;;;;;;;24.67;52.79;100638.34;5065095;28;20056;-58
2022/06/24 10:34:07;;;;;;;2.10;1.23;;;;;;;24.68;52.75;100637.31;5065878;28;20098;-58
2022/06/24 10:36:32;;;;;;;2.80;1.50;;;;;;;24.69;52.91;100638.97;5065878;28;20044;-59
2022/06/24 10:39:10;;;;;;;3.78;1.40;;;;;;;24.70;52.78;100637.91;5065099;28;20029;-58
2022/06/24 10:41:37;;;;;;;1.92;1.73;;;;;;;24.69;52.54;100636.25;5065513;28;20025;-59
2022/06/24 10:44:21;;;;;;;2.67;1.38;;;;;;;24.67;52.66;100622.03;5066116;28;20564;-58
2022/06/24 10:46:46;;;;;;;1.88;1.40;;;;;;;24.71;52.55;100625.16;5065751;28;20100;-59
2022/06/24 10:49:11;;;;;;;3.08;1.20;;;;;;;24.71;52.45;100628.72;5065754;28;20077;-58
2022/06/24 10:51:36;;;;;;;1.73;1.50;;;;;;;24.72;52.43;100633.09;5065610;28;20025;-58
2022/06/24 10:54:02;;;;;;;1.70;1.50;;;;;;;24.74;52.42;100635.63;5065511;28;20025;-58
2022/06/24 10:56:50;;;;;;;2.53;1.35;;;;;;;24.74;52.34;100619.31;5065310;28;20036;-59
2022/06/24 10:59:18;;;;;;;1.63;1.40;;;;;;;24.71;52.15;100628.72;5047672;28;20033;-59
2022/06/24 11:01:48;;;;;;;2.10;1.48;;;;;;;24.74;52.19;100633.72;5065647;28;20426;-59
2022/06/24 11:04:23;;;;;;;2.05;1.58;;;;;;;24.75;52.21;100629.94;5065343;28;20029;-58
2022/06/24 11:07:08;;;;;;;1.63;1.40;;;;;;;24.76;52.24;100633.50;5065384;28;20020;-59
2022/06/24 11:09:33;;;;;;;2.65;1.63;;;;;;;24.75;52.20;100620.97;5047174;28;20029;-59
2022/06/24 11:11:58;;;;;;;2.35;1.90;;;;;;;24.75;52.23;100624.50;5084402;28;20025;-59
2022/06/24 11:14:25;;;;;;;2.55;1.73;;;;;;;24.75;52.25;100619.06;5085385;28;20081;-59
2022/06/24 11:16:51;;;;;;;1.83;1.50;;;;;;;24.74;52.19;100619.31;5084160;28;20066;-59
2022/06/24 11:19:17;;;;;;;1.75;1.50;;;;;;;24.75;52.08;100619.06;5084118;28;20032;-59
2022/06/24 11:21:49;;;;;;;2.50;1.80;;;;;;;24.76;52.32;100628.91;5085625;28;20035;-60
2022/06/24 11:24:19;;;;;;;2.65;1.80;;;;;;;24.77;52.08;100632.47;5084705;28;20046;-58
2022/06/24 11:27:07;;;;;;;2.72;1.90;;;;;;;24.77;52.02;100627.03;5085239;28;20032;-59
2022/06/24 11:29:57;;;;;;;3.53;2.05;;;;;;;24.77;51.99;100627.03;5085090;28;20021;-60
2022/06/24 11:32:23;;;;;;;1.80;1.65;;;;;;;24.77;52.00;100627.03;5085393;28;20045;-59
2022/06/24 11:34:48;;;;;;;2.70;1.67;;;;;;;24.76;52.05;100628.91;5083615;28;20043;-59
2022/06/24 11:37:20;;;;;;;2.15;1.83;;;;;;;24.78;52.10;100625.97;5084765;28;20028;-56